Terminal Aerodrome Forecast
Issued by NWS

Home | Current Version | Previous Version | Text Only | Print | Product List | Glossary On
Versions: 1 2 3 4 5 6 7 8 9 10 11 12 13 14 15 16 17 18 19 20 21 22
000
FTUS43 KILX 221606 AAB
TAFCMI
TAF AMD
KCMI 221606Z 2216/2312 20010KT 3SM BR BKN002
      TEMPO 2216/2218 5SM BR SCT002
     FM221800 20010KT P6SM BKN015
     FM222000 20012KT P6SM SCT100
     FM230800 25007KT P6SM BKN040=

USA.gov is the U.S. government's official web portal to all federal, state and local government web resources and services.